createdAt,value
2018-01-21T00:00:13.384Z,10.90
2018-01-21T00:01:13.384Z,10.50
2018-01-21T00:02:13.411Z,11.00
2018-01-21T00:03:13.372Z,9.60
2018-01-21T00:04:13.363Z,11.90
2018-01-21T00:05:13.409Z,11.00
2018-01-21T00:06:13.354Z,11.20
2018-01-21T00:07:13.386Z,11.50
2018-01-21T00:08:13.347Z,11.20
2018-01-21T00:09:13.339Z,12.10
2018-01-21T00:10:13.387Z,12.30
2018-01-21T00:11:13.329Z,12.60
2018-01-21T00:12:13.362Z,12.10
2018-01-21T00:13:13.322Z,12.70
2018-01-21T00:14:13.312Z,12.40
2018-01-21T00:15:13.313Z,12.70
2018-01-21T00:16:13.343Z,12.80
2018-01-21T00:17:13.297Z,13.60
2018-01-21T00:18:13.290Z,12.50
2018-01-21T00:19:13.298Z,12.90
2018-01-21T00:20:13.285Z,12.70
2018-01-21T00:21:13.326Z,12.50
2018-01-21T00:22:13.270Z,12.40
2018-01-21T00:23:13.266Z,12.60
2018-01-21T00:24:13.264Z,12.90
2018-01-21T00:25:13.257Z,12.40
2018-01-21T00:26:13.298Z,12.50
2018-01-21T00:27:13.247Z,12.50
2018-01-21T00:28:13.240Z,12.80
2018-01-21T00:29:13.237Z,13.80
2018-01-21T00:30:13.231Z,14.10
2018-01-21T00:31:13.264Z,14.00
2018-01-21T00:32:13.221Z,14.80
2018-01-21T00:33:13.219Z,14.90
2018-01-21T00:34:13.209Z,14.80
2018-01-21T00:35:13.205Z,15.40
2018-01-21T00:36:13.244Z,15.00
2018-01-21T00:37:13.195Z,14.80
2018-01-21T00:38:13.187Z,14.70
2018-01-21T00:39:13.184Z,14.90
2018-01-21T00:40:13.178Z,13.90
2018-01-21T00:41:14.058Z,13.90
2018-01-21T00:42:13.173Z,14.40
2018-01-21T00:43:13.162Z,13.70
2018-01-21T00:44:13.159Z,14.60
2018-01-21T00:45:13.155Z,14.00
2018-01-21T00:46:13.192Z,13.80
2018-01-21T00:47:13.147Z,14.60
2018-01-21T00:48:13.138Z,14.40
2018-01-21T00:49:13.131Z,14.30
2018-01-21T00:50:13.131Z,14.20
2018-01-21T00:51:13.169Z,14.40
2018-01-21T00:52:13.119Z,14.10
2018-01-21T00:53:13.112Z,14.60
2018-01-21T00:54:13.106Z,15.10
2018-01-21T00:55:13.109Z,14.00
2018-01-21T00:56:13.133Z,14.60
2018-01-21T00:57:13.138Z,13.90
2018-01-21T00:58:13.084Z,14.90
2018-01-21T00:59:13.080Z,13.90
2018-01-21T01:00:13.076Z,14.30
2018-01-21T01:01:13.077Z,14.50
2018-01-21T01:02:13.105Z,13.30
2018-01-21T01:03:13.062Z,14.50
2018-01-21T01:04:13.056Z,14.30
2018-01-21T01:05:13.050Z,14.30
2018-01-21T01:06:13.085Z,14.10
2018-01-21T01:07:13.040Z,13.70
2018-01-21T01:08:13.373Z,14.30
2018-01-21T01:09:13.028Z,15.00
2018-01-21T01:10:13.028Z,14.90
2018-01-21T01:11:13.060Z,14.10
2018-01-21T01:12:13.016Z,15.50
2018-01-21T01:13:13.013Z,15.80
2018-01-21T01:14:13.044Z,15.60
2018-01-21T01:15:12.997Z,15.60
2018-01-21T01:16:13.032Z,16.40
2018-01-21T01:17:12.987Z,16.50
2018-01-21T01:18:12.984Z,16.80
2018-01-21T01:19:12.980Z,16.40
2018-01-21T01:20:12.975Z,17.30
2018-01-21T01:21:13.014Z,17.00
2018-01-21T01:22:12.966Z,17.70
2018-01-21T01:23:12.959Z,17.90
2018-01-21T01:24:12.954Z,17.20
2018-01-21T01:25:12.948Z,18.10
2018-01-21T01:26:12.981Z,18.10
2018-01-21T01:27:12.942Z,17.70
2018-01-21T01:28:12.930Z,19.10
2018-01-21T01:29:12.944Z,18.40
2018-01-21T01:30:12.922Z,18.40
2018-01-21T01:31:12.961Z,17.40
2018-01-21T01:32:12.910Z,17.60
2018-01-21T01:33:12.904Z,18.20
2018-01-21T01:34:12.900Z,17.60
2018-01-21T01:35:12.961Z,17.00
2018-01-21T01:36:12.938Z,17.40
2018-01-21T01:37:12.889Z,18.10
2018-01-21T01:38:12.878Z,17.30
2018-01-21T01:39:12.884Z,18.20
2018-01-21T01:40:12.870Z,18.60
2018-01-21T01:41:12.910Z,19.20
2018-01-21T01:42:12.857Z,18.00
2018-01-21T01:43:12.851Z,17.90
2018-01-21T01:44:12.850Z,17.40
2018-01-21T01:45:12.880Z,18.60
2018-01-21T01:46:12.840Z,17.70
2018-01-21T01:47:12.884Z,17.90
2018-01-21T01:48:12.827Z,17.70
2018-01-21T01:49:12.823Z,18.60
2018-01-21T01:50:12.865Z,18.20
2018-01-21T01:51:12.813Z,19.10
2018-01-21T01:52:12.811Z,18.10
2018-01-21T01:53:12.803Z,19.00
2018-01-21T01:54:12.797Z,18.00
2018-01-21T01:55:12.828Z,18.70
2018-01-21T01:56:13.628Z,18.10
2018-01-21T01:57:12.831Z,18.40
2018-01-21T01:58:12.778Z,19.30
2018-01-21T01:59:12.773Z,19.40
2018-01-21T02:00:12.810Z,19.70
2018-01-21T02:01:12.760Z,19.10
2018-01-21T02:02:12.761Z,20.10
2018-01-21T02:03:12.792Z,19.80
2018-01-21T02:04:12.749Z,19.90
2018-01-21T02:05:12.746Z,19.50
2018-01-21T02:06:12.738Z,20.10
2018-01-21T02:07:12.729Z,20.00
2018-01-21T02:08:12.765Z,20.30
2018-01-21T02:09:12.718Z,19.50
2018-01-21T02:10:12.714Z,20.50
2018-01-21T02:11:12.711Z,21.00
2018-01-21T02:12:12.759Z,20.00
2018-01-21T02:13:12.704Z,20.20
2018-01-21T02:14:12.706Z,20.60
2018-01-21T02:15:12.739Z,20.50
2018-01-21T02:16:12.689Z,20.60
2018-01-21T02:17:12.686Z,22.60
2018-01-21T02:18:12.716Z,21.50
2018-01-21T02:19:12.676Z,20.80
2018-01-21T02:20:12.669Z,21.80
2018-01-21T02:21:12.664Z,21.90
2018-01-21T02:22:12.708Z,21.60
2018-01-21T02:23:12.653Z,21.90
2018-01-21T02:24:12.648Z,21.00
2018-01-21T02:25:12.692Z,20.70
2018-01-21T02:26:12.638Z,21.10
2018-01-21T02:27:12.629Z,20.90
2018-01-21T02:28:12.671Z,20.80
2018-01-21T02:29:12.625Z,20.60
2018-01-21T02:30:12.619Z,20.90
2018-01-21T02:31:12.624Z,21.60
2018-01-21T02:32:12.611Z,23.80
2018-01-21T02:33:12.644Z,21.90
2018-01-21T02:34:12.596Z,22.50
2018-01-21T02:35:12.591Z,23.70
2018-01-21T02:36:12.587Z,21.30
2018-01-21T02:37:12.577Z,22.60
2018-01-21T02:38:12.614Z,22.70
2018-01-21T02:39:12.564Z,21.60
2018-01-21T02:40:12.560Z,22.00
2018-01-21T02:41:12.556Z,20.90
2018-01-21T02:42:12.548Z,21.60
2018-01-21T02:43:12.582Z,21.30
2018-01-21T02:44:12.541Z,21.90
2018-01-21T02:45:12.538Z,21.10
2018-01-21T02:46:12.534Z,21.60
2018-01-21T02:47:12.524Z,20.30
2018-01-21T02:48:12.568Z,20.60
2018-01-21T02:49:12.515Z,19.80
2018-01-21T02:50:12.548Z,19.90
2018-01-21T02:51:12.503Z,20.60
2018-01-21T02:52:12.501Z,19.60
2018-01-21T02:53:12.494Z,20.40
2018-01-21T02:54:12.532Z,20.60
2018-01-21T02:55:12.483Z,19.50
2018-01-21T02:56:12.479Z,20.70
2018-01-21T02:57:12.472Z,19.80
2018-01-21T02:58:12.469Z,19.80
2018-01-21T02:59:12.500Z,19.30
2018-01-21T03:00:12.458Z,20.40
2018-01-21T03:01:12.452Z,20.20
2018-01-21T03:02:12.449Z,19.80
2018-01-21T03:03:12.442Z,20.40
2018-01-21T03:04:12.483Z,19.70
2018-01-21T03:05:12.430Z,20.60
2018-01-21T03:06:12.425Z,20.10
2018-01-21T03:07:12.421Z,20.30
2018-01-21T03:08:12.416Z,20.50
2018-01-21T03:09:12.457Z,21.30
2018-01-21T03:10:12.453Z,22.10
2018-01-21T03:11:12.400Z,21.00
2018-01-21T03:12:12.396Z,22.00
2018-01-21T03:13:12.402Z,21.40
2018-01-21T03:14:12.390Z,20.90
2018-01-21T03:15:12.432Z,19.70
2018-01-21T03:16:12.383Z,21.30
2018-01-21T03:17:12.379Z,21.70
2018-01-21T03:18:12.364Z,21.30
2018-01-21T03:19:12.413Z,21.20
2018-01-21T03:20:12.360Z,21.30
2018-01-21T03:21:12.350Z,21.80
2018-01-21T03:22:12.345Z,20.90
2018-01-21T03:23:12.395Z,21.50
2018-01-21T03:24:12.336Z,21.10
2018-01-21T03:25:12.368Z,21.90
2018-01-21T03:26:12.330Z,21.00
2018-01-21T03:27:12.332Z,20.30
2018-01-21T03:28:12.316Z,20.80
2018-01-21T03:29:12.312Z,20.80
2018-01-21T03:30:12.356Z,20.40
2018-01-21T03:31:12.301Z,19.80
2018-01-21T03:32:12.343Z,21.30
2018-01-21T03:33:12.294Z,19.50
2018-01-21T03:34:12.290Z,20.70
2018-01-21T03:35:12.429Z,20.50
2018-01-21T03:36:12.283Z,20.80
2018-01-21T03:37:12.269Z,19.80
2018-01-21T03:38:12.266Z,20.10
2018-01-21T03:39:12.265Z,20.20
2018-01-21T03:40:12.294Z,20.30
2018-01-21T03:41:12.247Z,20.80
2018-01-21T03:42:12.250Z,19.60
2018-01-21T03:43:12.248Z,20.70
2018-01-21T03:44:12.244Z,19.90
2018-01-21T03:45:12.269Z,20.00
2018-01-21T03:46:12.227Z,20.90
2018-01-21T03:47:12.216Z,19.30
2018-01-21T03:48:12.215Z,20.80
2018-01-21T03:49:12.215Z,19.70
2018-01-21T03:50:12.248Z,20.90
2018-01-21T03:51:12.197Z,20.40
2018-01-21T03:52:12.196Z,20.40
2018-01-21T03:53:12.187Z,21.20
2018-01-21T03:54:12.184Z,20.50
2018-01-21T03:55:12.226Z,20.80
2018-01-21T03:56:12.175Z,20.40
2018-01-21T03:57:12.226Z,19.60
2018-01-21T03:58:12.162Z,20.40
2018-01-21T03:59:12.156Z,20.30
2018-01-21T04:00:12.155Z,20.40
2018-01-21T04:01:12.152Z,19.80
2018-01-21T04:02:12.190Z,20.00
2018-01-21T04:03:12.140Z,19.70
2018-01-21T04:04:12.137Z,19.10
2018-01-21T04:05:12.129Z,19.70
2018-01-21T04:06:12.176Z,20.60
2018-01-21T04:07:12.157Z,20.30
2018-01-21T04:08:12.112Z,19.70
2018-01-21T04:09:12.110Z,20.60
2018-01-21T04:10:12.104Z,18.80
2018-01-21T04:11:12.102Z,19.20
2018-01-21T04:12:12.130Z,19.30
2018-01-21T04:13:12.088Z,20.50
2018-01-21T04:14:12.084Z,19.80
2018-01-21T04:15:12.077Z,19.80
2018-01-21T04:16:12.069Z,20.30
2018-01-21T04:17:12.110Z,21.30
2018-01-21T04:18:12.060Z,20.50
2018-01-21T04:19:12.063Z,20.00
2018-01-21T04:20:12.055Z,20.50
2018-01-21T04:21:12.048Z,20.50
2018-01-21T04:22:12.409Z,20.20
2018-01-21T04:23:12.041Z,20.30
2018-01-21T04:24:12.038Z,21.40
2018-01-21T04:25:12.030Z,20.50
2018-01-21T04:26:12.028Z,20.30
2018-01-21T04:27:12.069Z,20.60
2018-01-21T04:28:12.025Z,20.70
2018-01-21T04:29:12.018Z,19.80
2018-01-21T04:30:12.006Z,20.20
2018-01-21T04:31:12.047Z,20.30
2018-01-21T04:32:11.988Z,19.70
2018-01-21T04:33:12.043Z,20.20
2018-01-21T04:34:12.001Z,20.20
2018-01-21T04:35:12.026Z,19.80
2018-01-21T04:36:11.980Z,19.80
2018-01-21T04:37:11.969Z,20.80
2018-01-21T04:38:11.970Z,20.60
2018-01-21T04:39:12.016Z,20.50
2018-01-21T04:40:11.957Z,21.30
2018-01-21T04:41:11.946Z,20.40
2018-01-21T04:42:11.940Z,20.60
2018-01-21T04:43:11.930Z,19.60
2018-01-21T04:44:11.980Z,19.70
2018-01-21T04:45:11.925Z,19.70
2018-01-21T04:46:11.932Z,18.90
2018-01-21T04:47:11.921Z,19.10
2018-01-21T04:48:11.914Z,19.50
2018-01-21T04:49:11.951Z,20.00
2018-01-21T04:50:11.900Z,20.20
2018-01-21T04:51:11.894Z,19.90
2018-01-21T04:52:11.889Z,20.20
2018-01-21T04:53:12.501Z,21.50
2018-01-21T04:54:11.921Z,20.40
2018-01-21T04:55:11.873Z,18.80
2018-01-21T04:56:11.871Z,19.90
2018-01-21T04:57:11.865Z,19.90
2018-01-21T04:58:11.871Z,19.40
2018-01-21T04:59:11.900Z,20.30
2018-01-21T05:00:11.859Z,19.30
2018-01-21T05:01:11.845Z,19.70
2018-01-21T05:02:11.838Z,19.90
2018-01-21T05:03:11.836Z,19.90
2018-01-21T05:04:11.875Z,18.90
2018-01-21T05:05:11.831Z,18.80
2018-01-21T05:06:11.834Z,19.00
2018-01-21T05:07:11.820Z,18.30
2018-01-21T05:08:11.816Z,20.00
2018-01-21T05:09:11.869Z,19.00
2018-01-21T05:10:11.812Z,19.20
2018-01-21T05:11:11.803Z,18.30
2018-01-21T05:12:11.798Z,17.90
2018-01-21T05:13:11.796Z,18.40
2018-01-21T05:14:11.826Z,18.30
2018-01-21T05:15:11.838Z,17.80
2018-01-21T05:16:11.778Z,18.10
2018-01-21T05:17:11.779Z,17.60
2018-01-21T05:18:11.772Z,16.30
2018-01-21T05:19:11.783Z,16.10
2018-01-21T05:20:11.811Z,17.80
2018-01-21T05:21:11.762Z,14.90
2018-01-21T05:22:11.756Z,15.90
2018-01-21T05:23:11.770Z,15.60
2018-01-21T05:24:11.742Z,16.10
2018-01-21T05:25:11.805Z,14.30
2018-01-21T05:26:11.737Z,14.90
2018-01-21T05:27:11.735Z,15.00
2018-01-21T05:28:12.140Z,14.80
2018-01-21T05:29:11.765Z,15.50
2018-01-21T05:30:11.763Z,15.70
2018-01-21T05:31:11.715Z,15.20
2018-01-21T05:32:11.702Z,15.70
2018-01-21T05:33:11.932Z,14.60
2018-01-21T05:34:11.742Z,15.10
2018-01-21T05:35:11.741Z,14.30
2018-01-21T05:36:11.697Z,14.20
2018-01-21T05:37:11.674Z,14.90
2018-01-21T05:38:11.679Z,13.80
2018-01-21T05:39:11.713Z,14.30
2018-01-21T05:40:12.445Z,13.90
2018-01-21T05:41:11.693Z,13.90
2018-01-21T05:42:11.663Z,13.60
2018-01-21T05:43:11.653Z,13.40
2018-01-21T05:44:11.688Z,13.80
2018-01-21T05:45:11.651Z,12.80
2018-01-21T05:46:11.677Z,12.90
2018-01-21T05:47:11.624Z,12.20
2018-01-21T05:48:11.611Z,13.10
2018-01-21T05:49:11.615Z,13.70
2018-01-21T05:50:11.612Z,12.90
2018-01-21T05:51:11.652Z,12.80
2018-01-21T05:52:11.621Z,14.40
2018-01-21T05:53:11.604Z,12.80
2018-01-21T05:54:11.589Z,12.20
2018-01-21T05:55:11.581Z,12.90
2018-01-21T05:56:11.635Z,12.50
2018-01-21T05:57:11.564Z,13.40
2018-01-21T05:58:11.565Z,14.40
2018-01-21T05:59:11.571Z,12.80
2018-01-21T06:00:11.563Z,13.70
2018-01-21T06:01:11.572Z,13.30
2018-01-21T06:02:11.595Z,12.00
2018-01-21T06:03:11.555Z,11.40
2018-01-21T06:04:11.546Z,10.30
2018-01-21T06:05:11.535Z,9.60
2018-01-21T06:06:11.580Z,10.90
2018-01-21T06:07:11.513Z,10.10
2018-01-21T06:08:11.519Z,10.10
2018-01-21T06:09:11.573Z,10.50
2018-01-21T06:10:11.504Z,9.90
2018-01-21T06:11:11.490Z,9.10
2018-01-21T06:12:11.487Z,8.70
2018-01-21T06:13:11.482Z,9.20
2018-01-21T06:14:11.517Z,8.80
2018-01-21T06:15:11.484Z,8.90
2018-01-21T06:16:11.473Z,9.60
2018-01-21T06:17:11.504Z,9.30
2018-01-21T06:18:11.462Z,9.20
2018-01-21T06:19:11.450Z,9.20
2018-01-21T06:20:11.442Z,9.40
2018-01-21T06:21:11.439Z,9.50
2018-01-21T06:22:11.480Z,9.90
2018-01-21T06:23:11.426Z,9.40
2018-01-21T06:24:11.466Z,9.40
2018-01-21T06:25:11.416Z,10.00
2018-01-21T06:26:11.416Z,9.80
2018-01-21T06:27:11.406Z,9.70
2018-01-21T06:28:11.446Z,10.00
2018-01-21T06:29:11.397Z,9.40
2018-01-21T06:30:11.394Z,9.70
2018-01-21T06:31:11.390Z,10.10
2018-01-21T06:32:11.386Z,10.00
2018-01-21T06:33:11.425Z,10.30
2018-01-21T06:34:11.370Z,9.60
2018-01-21T06:35:11.368Z,9.40
2018-01-21T06:36:11.363Z,10.90
2018-01-21T06:37:11.359Z,10.10
2018-01-21T06:38:11.883Z,10.20
2018-01-21T06:39:11.346Z,10.30
2018-01-21T06:40:11.338Z,10.30
2018-01-21T06:41:11.337Z,10.60
2018-01-21T06:42:11.330Z,11.20
2018-01-21T06:43:11.368Z,9.90
2018-01-21T06:44:11.319Z,10.40
2018-01-21T06:45:11.313Z,10.20
2018-01-21T06:46:11.307Z,10.20
2018-01-21T06:47:11.306Z,10.60
2018-01-21T06:48:11.351Z,9.70
2018-01-21T06:49:11.296Z,10.20
2018-01-21T06:50:11.292Z,10.80
2018-01-21T06:51:11.285Z,10.20
2018-01-21T06:52:11.283Z,10.00
2018-01-21T06:53:11.316Z,10.30
2018-01-21T06:54:11.267Z,10.10
2018-01-21T06:55:11.261Z,10.00
2018-01-21T06:56:11.265Z,10.50
2018-01-21T06:57:11.264Z,10.50
2018-01-21T06:58:11.297Z,9.80
2018-01-21T06:59:11.240Z,9.30
2018-01-21T07:00:11.235Z,11.00
2018-01-21T07:01:11.231Z,10.80
2018-01-21T07:02:11.272Z,9.60
2018-01-21T07:03:11.222Z,9.70
2018-01-21T07:04:11.267Z,10.10
2018-01-21T07:05:11.213Z,10.20
2018-01-21T07:06:11.206Z,10.30
2018-01-21T07:07:11.200Z,11.00
2018-01-21T07:08:11.196Z,10.70
2018-01-21T07:09:11.241Z,11.00
2018-01-21T07:10:11.192Z,11.10
2018-01-21T07:11:11.194Z,11.80
2018-01-21T07:12:11.216Z,11.80
2018-01-21T07:13:11.168Z,11.10
2018-01-21T07:14:11.164Z,11.10
2018-01-21T07:15:11.209Z,10.20
2018-01-21T07:16:11.157Z,8.60
2018-01-21T07:17:11.187Z,9.80
2018-01-21T07:18:11.146Z,9.70
2018-01-21T07:19:11.183Z,10.10
2018-01-21T07:20:11.134Z,9.80
2018-01-21T07:21:11.130Z,9.60
2018-01-21T07:22:11.126Z,9.20
2018-01-21T07:23:11.122Z,9.40
2018-01-21T07:24:11.149Z,9.00
2018-01-21T07:25:11.109Z,8.50
2018-01-21T07:26:11.119Z,8.80
2018-01-21T07:27:11.099Z,8.30
2018-01-21T07:28:11.095Z,9.10
2018-01-21T07:29:11.133Z,8.20
2018-01-21T07:30:11.744Z,7.90
2018-01-21T07:31:11.885Z,6.50
2018-01-21T07:32:11.073Z,7.20
2018-01-21T07:33:11.065Z,7.30
2018-01-21T07:34:11.098Z,7.90
2018-01-21T07:35:11.723Z,6.80
2018-01-21T07:36:11.052Z,7.00
2018-01-21T07:37:11.808Z,7.10
2018-01-21T07:38:11.043Z,6.60
2018-01-21T07:39:11.084Z,7.20
2018-01-21T07:40:11.028Z,7.20
2018-01-21T07:41:11.023Z,6.90
2018-01-21T07:42:11.019Z,6.80
2018-01-21T07:43:11.014Z,6.90
2018-01-21T07:44:11.056Z,6.80
2018-01-21T07:45:11.010Z,7.30
2018-01-21T07:46:11.002Z,6.70
2018-01-21T07:47:10.997Z,6.80
2018-01-21T07:48:10.995Z,6.70
2018-01-21T07:49:11.036Z,6.70
2018-01-21T07:50:10.989Z,6.90
2018-01-21T07:51:11.017Z,6.60
2018-01-21T07:52:10.967Z,6.20
2018-01-21T07:53:10.965Z,6.10
2018-01-21T07:54:11.474Z,6.20
2018-01-21T07:55:10.956Z,6.70
2018-01-21T07:56:10.953Z,6.20
2018-01-21T07:57:10.949Z,6.40
2018-01-21T07:58:10.937Z,6.30
2018-01-21T07:59:10.986Z,6.70
2018-01-21T08:00:10.936Z,6.40
2018-01-21T08:01:10.930Z,6.30
2018-01-21T08:02:11.626Z,6.50
2018-01-21T08:03:10.918Z,6.50
2018-01-21T08:04:10.952Z,6.10
2018-01-21T08:05:10.917Z,6.50
2018-01-21T08:06:10.909Z,6.80
2018-01-21T08:07:10.903Z,8.00
2018-01-21T08:08:10.899Z,8.80
2018-01-21T08:09:10.952Z,11.60
2018-01-21T08:10:10.907Z,12.30
2018-01-21T08:11:10.932Z,12.20
2018-01-21T08:12:10.883Z,13.40
2018-01-21T08:13:10.880Z,14.50
2018-01-21T08:14:10.875Z,13.40
2018-01-21T08:15:10.921Z,13.90
2018-01-21T08:16:10.904Z,13.80
2018-01-21T08:17:10.867Z,13.60
2018-01-21T08:18:10.854Z,13.10
2018-01-21T08:19:10.853Z,13.40
2018-01-21T08:20:10.859Z,13.10
2018-01-21T08:21:10.883Z,14.10
2018-01-21T08:22:10.843Z,13.80
2018-01-21T08:23:10.843Z,13.70
2018-01-21T08:24:10.839Z,14.10
2018-01-21T08:25:10.873Z,13.80
2018-01-21T08:26:10.835Z,14.60
2018-01-21T08:27:10.820Z,14.20
2018-01-21T08:28:10.831Z,13.20
2018-01-21T08:29:10.809Z,12.90
2018-01-21T08:30:10.870Z,13.40
2018-01-21T08:31:10.811Z,13.40
2018-01-21T08:32:10.804Z,12.70
2018-01-21T08:33:10.812Z,13.20
2018-01-21T08:34:10.804Z,13.10
2018-01-21T08:35:10.830Z,13.20
2018-01-21T08:36:10.839Z,12.80
2018-01-21T08:37:10.791Z,11.60
2018-01-21T08:38:10.774Z,12.80
2018-01-21T08:39:10.770Z,13.10
2018-01-21T08:40:10.771Z,14.20
2018-01-21T08:41:10.803Z,14.00
2018-01-21T08:42:10.771Z,14.70
2018-01-21T08:43:10.759Z,13.80
2018-01-21T08:44:10.751Z,13.20
2018-01-21T08:45:10.791Z,12.20
2018-01-21T08:46:10.748Z,12.60
2018-01-21T08:47:10.737Z,12.10
2018-01-21T08:48:10.736Z,11.80
2018-01-21T08:49:10.761Z,11.70
2018-01-21T08:50:10.718Z,11.30
2018-01-21T08:51:10.766Z,11.40
2018-01-21T08:52:10.725Z,10.70
2018-01-21T08:53:10.711Z,11.00
2018-01-21T08:54:10.708Z,10.70
2018-01-21T08:55:10.707Z,10.60
2018-01-21T08:56:10.747Z,10.50
2018-01-21T08:57:10.696Z,10.80
2018-01-21T08:58:10.690Z,10.80
2018-01-21T08:59:10.745Z,10.70
2018-01-21T09:00:10.686Z,10.50
2018-01-21T09:01:10.689Z,10.60
2018-01-21T09:02:10.677Z,10.60
2018-01-21T09:03:11.239Z,11.10
2018-01-21T09:04:10.665Z,10.90
2018-01-21T09:05:10.704Z,12.80
2018-01-21T09:06:10.688Z,12.80
2018-01-21T09:07:10.694Z,13.10
2018-01-21T09:08:10.658Z,14.00
2018-01-21T09:09:10.650Z,14.20
2018-01-21T09:10:10.646Z,14.00
2018-01-21T09:11:10.640Z,11.70
2018-01-21T09:12:10.676Z,11.10
2018-01-21T09:13:10.639Z,11.30
2018-01-21T09:14:10.630Z,10.40
2018-01-21T09:15:10.627Z,10.50
2018-01-21T09:16:10.619Z,10.60
2018-01-21T09:17:10.653Z,11.80
2018-01-21T09:18:10.720Z,11.20
2018-01-21T09:19:10.616Z,12.30
2018-01-21T09:20:10.604Z,12.10
2018-01-21T09:21:10.603Z,12.40
2018-01-21T09:22:10.661Z,12.80
2018-01-21T09:23:10.599Z,12.80
2018-01-21T09:24:10.627Z,12.70
2018-01-21T09:25:10.588Z,11.80
2018-01-21T09:26:10.579Z,12.30
2018-01-21T09:27:10.628Z,12.20
2018-01-21T09:28:10.574Z,14.10
2018-01-21T09:29:11.342Z,14.40
2018-01-21T09:30:10.569Z,14.60
2018-01-21T09:31:10.562Z,14.00
2018-01-21T09:32:10.593Z,12.80
2018-01-21T09:33:10.555Z,13.30
2018-01-21T09:34:10.550Z,12.30
2018-01-21T09:35:10.547Z,12.50
2018-01-21T09:36:11.405Z,13.00
2018-01-21T09:37:10.587Z,14.40
2018-01-21T09:38:10.540Z,15.50
2018-01-21T09:39:10.531Z,14.60
2018-01-21T09:40:10.533Z,13.10
2018-01-21T09:41:10.527Z,11.90
2018-01-21T09:42:10.564Z,10.70
2018-01-21T09:43:11.398Z,13.40
2018-01-21T09:44:10.559Z,12.80
2018-01-21T09:45:10.505Z,10.10
2018-01-21T09:46:10.500Z,11.10
2018-01-21T09:47:10.555Z,13.00
2018-01-21T09:48:10.504Z,11.20
2018-01-21T09:49:10.494Z,9.90
2018-01-21T09:50:10.584Z,9.30
2018-01-21T09:51:10.480Z,9.70
2018-01-21T09:52:10.493Z,9.20
2018-01-21T09:53:10.521Z,9.90
2018-01-21T09:54:10.511Z,9.20
2018-01-21T09:55:10.474Z,10.10
2018-01-21T09:56:10.469Z,10.40
2018-01-21T09:57:12.367Z,10.90
2018-01-21T09:58:10.467Z,11.30
2018-01-21T09:59:10.542Z,11.70
2018-01-21T10:00:10.459Z,12.00
2018-01-21T10:01:10.443Z,10.90
2018-01-21T10:02:10.442Z,12.00
2018-01-21T10:03:10.433Z,12.10
2018-01-21T10:04:10.477Z,10.70
2018-01-21T10:05:10.441Z,6.10
2018-01-21T10:06:10.434Z,10.40
2018-01-21T10:07:10.433Z,9.80
2018-01-21T10:08:10.426Z,9.50
2018-01-21T10:09:10.470Z,11.50
2018-01-21T10:10:10.420Z,10.60
2018-01-21T10:11:10.426Z,10.40
2018-01-21T10:12:10.432Z,10.80
2018-01-21T10:13:10.415Z,10.40
2018-01-21T10:14:11.264Z,9.40
2018-01-21T10:15:10.428Z,8.60
2018-01-21T10:16:10.399Z,8.80
2018-01-21T10:17:10.389Z,9.00
2018-01-21T10:18:10.456Z,9.10
2018-01-21T10:19:10.404Z,8.60
2018-01-21T10:20:10.382Z,8.70
2018-01-21T10:21:10.393Z,8.90
2018-01-21T10:22:10.370Z,9.40
2018-01-21T10:23:10.401Z,9.40
2018-01-21T10:24:10.409Z,9.30
2018-01-21T10:25:10.357Z,9.70
2018-01-21T10:26:10.394Z,9.90
2018-01-21T10:27:10.381Z,8.90
2018-01-21T10:28:10.369Z,8.10
2018-01-21T10:29:10.400Z,10.50
2018-01-21T10:30:10.354Z,10.20
2018-01-21T10:31:10.358Z,10.20
2018-01-21T10:32:10.344Z,10.30
2018-01-21T10:33:10.334Z,10.60
2018-01-21T10:34:10.396Z,10.10
2018-01-21T10:35:10.339Z,9.40
2018-01-21T10:36:10.340Z,9.10
2018-01-21T10:37:10.323Z,10.20
2018-01-21T10:38:10.361Z,9.80
2018-01-21T10:39:10.323Z,9.20
2018-01-21T10:40:10.392Z,10.40
2018-01-21T10:41:10.326Z,10.70
2018-01-21T10:42:10.316Z,10.80
2018-01-21T10:43:10.368Z,10.90
2018-01-21T10:44:10.294Z,10.10
2018-01-21T10:45:10.317Z,9.80
2018-01-21T10:46:10.364Z,11.10
2018-01-21T10:47:10.309Z,10.80
2018-01-21T10:48:10.342Z,10.80
2018-01-21T10:49:10.287Z,10.50
2018-01-21T10:50:10.293Z,9.60
2018-01-21T10:51:10.336Z,6.60
2018-01-21T10:52:10.285Z,10.20
2018-01-21T10:53:10.278Z,9.80
2018-01-21T10:54:10.280Z,9.70
2018-01-21T10:55:10.268Z,8.90
2018-01-21T10:56:10.330Z,9.30
2018-01-21T10:57:10.272Z,9.50
2018-01-21T10:58:10.299Z,9.80
2018-01-21T10:59:10.253Z,10.20
2018-01-21T11:00:10.934Z,9.50
2018-01-21T11:01:10.263Z,10.00
2018-01-21T11:02:10.324Z,9.20
2018-01-21T11:03:10.253Z,9.60
2018-01-21T11:04:10.241Z,9.80
2018-01-21T11:05:10.232Z,9.40
2018-01-21T11:06:10.956Z,9.10
2018-01-21T11:07:10.293Z,9.20
2018-01-21T11:08:10.228Z,9.10
2018-01-21T11:09:10.227Z,9.50
2018-01-21T11:10:10.241Z,10.40
2018-01-21T11:11:10.236Z,7.90
2018-01-21T11:12:10.285Z,8.80
2018-01-21T11:13:10.973Z,9.80
2018-01-21T11:14:10.228Z,10.00
2018-01-21T11:15:10.224Z,10.30
2018-01-21T11:16:10.220Z,11.30
2018-01-21T11:17:10.268Z,9.40
2018-01-21T11:18:10.210Z,8.20
2018-01-21T11:19:10.236Z,9.40
2018-01-21T11:20:10.200Z,10.30
2018-01-21T11:21:10.206Z,4.80
2018-01-21T11:22:10.248Z,6.90
2018-01-21T11:23:10.193Z,7.80
2018-01-21T11:24:10.185Z,5.70
2018-01-21T11:25:10.190Z,6.40
2018-01-21T11:26:10.165Z,6.70
2018-01-21T11:27:10.233Z,6.80
2018-01-21T11:28:10.963Z,7.40
2018-01-21T11:29:10.216Z,7.40
2018-01-21T11:30:10.174Z,7.90
2018-01-21T11:31:10.169Z,7.90
2018-01-21T11:32:10.177Z,7.90
2018-01-21T11:33:10.805Z,8.30
2018-01-21T11:34:10.203Z,5.20
2018-01-21T11:35:10.161Z,6.50
2018-01-21T11:36:10.156Z,7.10
2018-01-21T11:37:10.203Z,8.90
2018-01-21T11:38:10.145Z,7.60
2018-01-21T11:39:10.164Z,8.70
2018-01-21T11:40:10.197Z,7.80
2018-01-21T11:41:10.139Z,7.70
2018-01-21T11:42:10.138Z,7.60
2018-01-21T11:43:10.128Z,7.50
2018-01-21T11:44:10.151Z,8.80
2018-01-21T11:45:10.177Z,9.20
2018-01-21T11:46:10.148Z,9.70
2018-01-21T11:47:10.824Z,9.40
2018-01-21T11:48:10.119Z,10.00
2018-01-21T11:49:10.174Z,9.70
2018-01-21T11:50:10.135Z,8.80
2018-01-21T11:51:10.113Z,10.00
2018-01-21T11:52:10.155Z,10.90
2018-01-21T11:53:10.104Z,10.10
2018-01-21T11:54:10.109Z,9.30
2018-01-21T11:55:10.147Z,8.50
2018-01-21T11:56:10.096Z,11.80
2018-01-21T11:57:10.158Z,10.70
2018-01-21T11:58:10.088Z,8.80
2018-01-21T11:59:10.082Z,10.60
2018-01-21T12:00:10.088Z,10.70
2018-01-21T12:01:10.121Z,10.10
2018-01-21T12:02:10.092Z,11.00
2018-01-21T12:03:10.088Z,9.90
2018-01-21T12:04:10.079Z,9.90
2018-01-21T12:05:10.113Z,9.40
2018-01-21T12:06:10.074Z,9.80
2018-01-21T12:07:10.123Z,9.30
2018-01-21T12:08:10.061Z,9.70
2018-01-21T12:09:10.876Z,9.10
2018-01-21T12:10:10.057Z,9.20
2018-01-21T12:11:10.105Z,9.10
2018-01-21T12:12:10.056Z,8.40
2018-01-21T12:13:10.055Z,9.70
2018-01-21T12:14:10.054Z,8.80
2018-01-21T12:15:10.052Z,9.00
2018-01-21T12:16:10.087Z,8.80
2018-01-21T12:17:10.045Z,9.50
2018-01-21T12:18:10.052Z,9.40
2018-01-21T12:19:10.036Z,7.90
2018-01-21T12:20:10.029Z,10.10
2018-01-21T12:21:10.082Z,9.30
2018-01-21T12:22:10.021Z,6.80
2018-01-21T12:23:10.029Z,7.80
2018-01-21T12:24:10.019Z,9.40
2018-01-21T12:25:10.014Z,7.50
2018-01-21T12:26:10.053Z,8.10
2018-01-21T12:27:10.020Z,7.30
2018-01-21T12:28:10.063Z,6.60
2018-01-21T12:29:09.991Z,9.70
2018-01-21T12:30:10.008Z,8.80
2018-01-21T12:31:09.990Z,9.60
2018-01-21T12:32:10.007Z,9.80
2018-01-21T12:33:10.052Z,9.70
2018-01-21T12:34:10.007Z,9.10
2018-01-21T12:35:09.998Z,9.50
2018-01-21T12:36:09.998Z,26.60
2018-01-21T12:37:10.020Z,77.60
2018-01-21T12:38:09.977Z,31.00
2018-01-21T12:39:10.027Z,15.90
2018-01-21T12:40:09.984Z,19.30
2018-01-21T12:41:09.991Z,13.00
2018-01-21T12:42:09.989Z,13.80
2018-01-21T12:43:09.950Z,14.60
2018-01-21T12:44:10.003Z,23.90
2018-01-21T12:45:09.967Z,16.90
2018-01-21T12:46:09.948Z,15.60
2018-01-21T12:47:09.959Z,12.20
2018-01-21T12:48:09.951Z,10.80
2018-01-21T12:49:10.010Z,12.40
2018-01-21T12:50:09.963Z,9.00
2018-01-21T12:51:09.940Z,12.70
2018-01-21T12:52:09.989Z,13.00
2018-01-21T12:53:09.946Z,9.80
2018-01-21T12:54:09.969Z,9.70
2018-01-21T12:55:09.915Z,9.50
2018-01-21T12:56:09.925Z,8.30
2018-01-21T12:57:09.930Z,8.90
2018-01-21T12:58:09.937Z,8.30
2018-01-21T12:59:09.988Z,7.70